createdAt,value
2023-05-09T00:04:57.098Z,4.23
2023-05-09T00:07:30.636Z,4.40
2023-05-09T00:10:18.528Z,4.77
2023-05-09T00:25:13.556Z,4.53
2023-05-09T00:28:21.692Z,4.90
2023-05-09T00:31:08.268Z,5.10
2023-05-09T00:33:47.344Z,4.47
2023-05-09T00:42:29.289Z,4.60
2023-05-09T00:45:07.202Z,4.57
2023-05-09T00:57:03.588Z,4.83
2023-05-09T00:59:37.383Z,4.87
2023-05-09T01:02:10.939Z,4.60
2023-05-09T01:04:48.915Z,5.40
2023-05-09T01:11:16.719Z,4.50
2023-05-09T01:31:57.382Z,4.60
2023-05-09T01:41:51.250Z,4.90
2023-05-09T01:47:29.004Z,5.13
2023-05-09T01:50:02.728Z,5.40
2023-05-09T01:52:37.456Z,5.30
2023-05-09T01:58:12.049Z,4.90
2023-05-09T02:00:49.181Z,5.20
2023-05-09T02:03:24.947Z,6.00
2023-05-09T02:09:01.452Z,4.60
2023-05-09T02:11:29.155Z,5.57
2023-05-09T02:13:56.790Z,5.10
2023-05-09T02:16:24.888Z,5.27
2023-05-09T02:18:53.945Z,5.60
2023-05-09T02:21:21.668Z,5.03
2023-05-09T02:23:49.957Z,4.73
2023-05-09T02:26:17.783Z,5.60
2023-05-09T02:28:47.974Z,5.10
2023-05-09T02:31:17.983Z,5.07
2023-05-09T02:33:47.862Z,5.37
2023-05-09T02:36:17.550Z,5.73
2023-05-09T02:38:46.058Z,4.43
2023-05-09T02:41:15.095Z,5.40
2023-05-09T02:43:43.269Z,5.60
2023-05-09T02:46:11.448Z,5.13
2023-05-09T02:48:39.081Z,5.40
2023-05-09T02:51:06.725Z,5.33
2023-05-09T02:53:35.700Z,4.70
2023-05-09T02:56:03.893Z,5.63
2023-05-09T02:58:31.504Z,5.53
2023-05-09T03:00:59.270Z,5.30
2023-05-09T03:03:27.191Z,5.43
2023-05-09T03:05:54.806Z,5.57
2023-05-09T03:08:22.398Z,5.50
2023-05-09T03:10:51.408Z,5.60
2023-05-09T03:13:19.109Z,6.20
2023-05-09T03:15:46.824Z,6.13
2023-05-09T03:18:14.413Z,6.43
2023-05-09T03:20:42.127Z,5.50
2023-05-09T03:23:10.084Z,5.60
2023-05-09T03:25:37.689Z,6.03
2023-05-09T03:28:06.746Z,6.13
2023-05-09T03:30:34.342Z,5.90
2023-05-09T03:33:02.060Z,5.73
2023-05-09T03:35:29.709Z,6.40
2023-05-09T03:37:57.386Z,5.90
2023-05-09T03:40:24.978Z,6.13
2023-05-09T03:42:52.939Z,5.83
2023-05-09T03:45:22.158Z,6.20
2023-05-09T03:47:49.908Z,7.23
2023-05-09T03:50:17.695Z,7.00
2023-05-09T03:52:45.275Z,5.67
2023-05-09T03:55:13.220Z,6.70
2023-05-09T03:57:41.013Z,6.50
2023-05-09T04:00:10.416Z,6.17
2023-05-09T04:02:39.565Z,6.53
2023-05-09T04:05:07.733Z,6.40
2023-05-09T04:07:35.665Z,6.00
2023-05-09T04:10:03.326Z,5.53
2023-05-09T04:12:30.962Z,5.47
2023-05-09T04:14:58.536Z,6.30
2023-05-09T04:17:26.531Z,5.93
2023-05-09T04:19:55.497Z,6.83
2023-05-09T04:22:23.096Z,6.27
2023-05-09T04:24:50.682Z,6.77
2023-05-09T04:27:18.448Z,6.90
2023-05-09T04:29:46.244Z,5.57
2023-05-09T04:32:13.838Z,5.70
2023-05-09T04:34:41.485Z,6.20
2023-05-09T04:37:11.091Z,6.87
2023-05-09T04:39:38.691Z,7.03
2023-05-09T04:42:06.695Z,5.90
2023-05-09T04:44:35.743Z,6.03
2023-05-09T04:47:04.449Z,6.50
2023-05-09T04:49:32.157Z,6.43
2023-05-09T04:51:59.771Z,6.50
2023-05-09T04:54:29.417Z,5.73
2023-05-09T04:57:03.496Z,6.80
2023-05-09T04:59:41.754Z,6.57
2023-05-09T05:02:09.382Z,6.83
2023-05-09T05:04:37.207Z,6.00
2023-05-09T05:07:05.226Z,6.47
2023-05-09T05:09:34.179Z,7.43
2023-05-09T05:12:03.665Z,6.43
2023-05-09T05:14:32.565Z,7.50
2023-05-09T05:17:00.172Z,6.90
2023-05-09T05:19:28.395Z,6.67
2023-05-09T05:21:56.009Z,7.53
2023-05-09T05:24:23.720Z,7.03
2023-05-09T05:26:53.223Z,7.00
2023-05-09T05:29:21.793Z,6.20
2023-05-09T05:31:49.436Z,6.53
2023-05-09T05:34:17.380Z,7.10
2023-05-09T05:36:45.465Z,6.50
2023-05-09T05:39:13.309Z,6.67
2023-05-09T05:41:40.946Z,6.20
2023-05-09T05:44:10.315Z,6.60
2023-05-09T05:46:38.290Z,7.03
2023-05-09T05:49:06.268Z,7.30
2023-05-09T05:51:33.834Z,6.63
2023-05-09T05:54:02.077Z,7.07
2023-05-09T05:56:30.922Z,6.97
2023-05-09T05:58:59.562Z,6.57
2023-05-09T06:01:28.543Z,6.20
2023-05-09T06:03:57.418Z,6.53
2023-05-09T06:06:25.807Z,5.93
2023-05-09T06:08:53.564Z,6.20
2023-05-09T06:11:21.211Z,6.07
2023-05-09T06:13:49.375Z,6.40
2023-05-09T06:16:19.922Z,5.60
2023-05-09T06:18:49.672Z,6.10
2023-05-09T06:21:17.313Z,6.23
2023-05-09T06:24:01.277Z,6.47
2023-05-09T06:26:33.102Z,6.80
2023-05-09T06:29:00.833Z,6.33
2023-05-09T06:31:28.489Z,5.67
2023-05-09T06:33:57.472Z,6.47
2023-05-09T06:36:25.406Z,6.93
2023-05-09T06:38:53.089Z,6.30
2023-05-09T06:41:21.491Z,6.20
2023-05-09T06:43:50.027Z,6.37
2023-05-09T06:46:17.774Z,6.27
2023-05-09T06:48:45.465Z,6.20
2023-05-09T06:51:14.417Z,6.30
2023-05-09T06:53:42.742Z,5.93
2023-05-09T06:56:10.525Z,5.90
2023-05-09T06:58:38.176Z,5.80
2023-05-09T07:01:06.256Z,5.70
2023-05-09T07:03:34.063Z,5.77
2023-05-09T07:06:01.718Z,6.90
2023-05-09T07:08:30.858Z,6.30
2023-05-09T07:10:59.481Z,7.00
2023-05-09T07:13:27.252Z,6.50
2023-05-09T07:15:54.861Z,6.63
2023-05-09T07:18:22.638Z,5.40
2023-05-09T07:20:50.975Z,6.20
2023-05-09T07:23:18.576Z,7.37
2023-05-09T07:25:47.851Z,5.93
2023-05-09T07:28:15.654Z,6.83
2023-05-09T07:30:43.663Z,6.10
2023-05-09T07:33:11.369Z,6.60
2023-05-09T07:35:39.550Z,5.67
2023-05-09T07:38:07.262Z,6.17
2023-05-09T07:40:36.364Z,6.47
2023-05-09T07:43:05.737Z,6.40
2023-05-09T07:45:33.661Z,6.43
2023-05-09T07:48:01.491Z,5.90
2023-05-09T07:50:29.169Z,5.87
2023-05-09T07:52:56.868Z,6.53
2023-05-09T07:55:24.489Z,6.60
2023-05-09T07:57:52.113Z,7.90
2023-05-09T08:00:23.695Z,7.10
2023-05-09T08:02:51.989Z,6.60
2023-05-09T08:05:19.838Z,6.10
2023-05-09T08:07:47.537Z,7.27
2023-05-09T08:10:15.138Z,7.37
2023-05-09T08:12:42.777Z,6.77
2023-05-09T08:15:11.119Z,7.43
2023-05-09T08:17:40.181Z,6.97
2023-05-09T08:20:09.022Z,7.40
2023-05-09T08:22:37.078Z,7.47
2023-05-09T08:25:05.088Z,6.83
2023-05-09T08:27:33.090Z,7.30
2023-05-09T08:30:00.778Z,6.80
2023-05-09T08:32:28.375Z,7.40
2023-05-09T08:34:57.361Z,6.87
2023-05-09T08:37:24.946Z,6.50
2023-05-09T08:39:52.559Z,6.80
2023-05-09T08:42:25.456Z,7.40
2023-05-09T08:44:54.035Z,7.90
2023-05-09T08:47:22.989Z,6.63
2023-05-09T08:49:52.087Z,7.43
2023-05-09T08:52:21.723Z,6.67
2023-05-09T08:54:49.392Z,6.87
2023-05-09T08:57:17.235Z,7.73
2023-05-09T08:59:45.476Z,7.63
2023-05-09T09:02:16.041Z,6.90
2023-05-09T09:04:45.005Z,7.60
2023-05-09T09:07:14.877Z,7.70
2023-05-09T09:09:47.549Z,7.40
2023-05-09T09:12:17.329Z,6.30
2023-05-09T09:14:49.562Z,6.57
2023-05-09T09:17:21.334Z,7.10
2023-05-09T09:19:51.349Z,6.73
2023-05-09T09:22:20.793Z,6.83
2023-05-09T09:24:49.956Z,7.10
2023-05-09T09:27:17.676Z,7.67
2023-05-09T09:29:45.285Z,7.13
2023-05-09T09:32:13.088Z,7.20
2023-05-09T09:34:40.748Z,6.37
2023-05-09T09:37:09.076Z,7.13
2023-05-09T09:39:36.874Z,6.90
2023-05-09T09:42:15.406Z,7.67
2023-05-09T09:44:43.032Z,7.13
2023-05-09T09:47:11.636Z,7.17
2023-05-09T09:49:46.202Z,6.77
2023-05-09T09:52:23.659Z,6.40
2023-05-09T09:54:51.440Z,6.70
2023-05-09T10:00:13.693Z,6.60
2023-05-09T10:02:52.942Z,7.33
2023-05-09T10:05:22.379Z,6.77
2023-05-09T10:07:56.107Z,7.60
2023-05-09T10:10:25.180Z,6.80
2023-05-09T10:12:57.488Z,7.20
2023-05-09T10:15:28.734Z,7.40
2023-05-09T10:18:00.841Z,6.80
2023-05-09T10:20:29.564Z,7.23
2023-05-09T10:22:59.810Z,7.67
2023-05-09T10:25:33.192Z,8.40
2023-05-09T10:28:02.215Z,7.50
2023-05-09T10:30:34.249Z,7.73
2023-05-09T10:33:05.357Z,7.00
2023-05-09T10:35:37.325Z,7.50
2023-05-09T10:38:05.423Z,7.10
2023-05-09T10:40:33.813Z,7.57
2023-05-09T10:43:01.457Z,7.57
2023-05-09T10:45:30.979Z,7.70
2023-05-09T10:47:59.639Z,7.73
2023-05-09T10:50:27.577Z,7.30
2023-05-09T10:53:11.508Z,7.40
2023-05-09T10:55:40.944Z,6.70
2023-05-09T10:58:21.036Z,7.50
2023-05-09T11:00:51.131Z,6.80
2023-05-09T11:03:19.745Z,7.23
2023-05-09T11:05:48.051Z,6.73
2023-05-09T11:08:29.164Z,6.93
2023-05-09T11:10:57.964Z,6.90
2023-05-09T11:13:27.345Z,7.03
2023-05-09T11:16:13.389Z,6.33
2023-05-09T11:18:54.148Z,7.53
2023-05-09T11:21:22.380Z,6.80
2023-05-09T11:23:52.952Z,7.70
2023-05-09T11:26:24.451Z,6.57
2023-05-09T11:28:56.728Z,6.30
2023-05-09T11:31:25.861Z,6.37
2023-05-09T11:34:04.258Z,6.10
2023-05-09T11:36:33.704Z,6.83
2023-05-09T11:39:03.572Z,5.73
2023-05-09T11:41:31.922Z,5.90
2023-05-09T11:44:00.396Z,6.83
2023-05-09T11:46:29.828Z,6.63
2023-05-09T11:48:58.075Z,6.00
2023-05-09T11:51:26.783Z,5.70
2023-05-09T11:53:54.361Z,6.50
2023-05-09T11:56:24.013Z,6.80
2023-05-09T11:58:52.892Z,5.80
2023-05-09T12:01:20.962Z,6.40
2023-05-09T12:03:50.491Z,6.80
2023-05-09T12:06:18.870Z,6.00
2023-05-09T12:08:47.292Z,6.50
2023-05-09T12:11:15.914Z,6.23
2023-05-09T12:13:48.053Z,5.10
2023-05-09T12:16:16.506Z,5.57
2023-05-09T12:18:48.371Z,6.13
2023-05-09T12:21:17.554Z,6.20
2023-05-09T12:23:45.535Z,6.43
2023-05-09T12:26:13.364Z,5.40
2023-05-09T12:28:41.486Z,5.47
2023-05-09T12:31:09.309Z,6.27
2023-05-09T12:33:39.203Z,5.70
2023-05-09T12:36:10.147Z,5.40
2023-05-09T12:38:39.414Z,5.87
2023-05-09T12:41:15.486Z,5.90
2023-05-09T12:43:51.144Z,5.60
2023-05-09T12:46:19.940Z,5.10
2023-05-09T12:48:48.586Z,5.23
2023-05-09T12:51:19.658Z,5.90
2023-05-09T12:53:48.804Z,5.90
2023-05-09T12:56:19.078Z,5.33
2023-05-09T12:58:51.569Z,6.13
2023-05-09T13:01:19.371Z,5.13
2023-05-09T13:03:52.682Z,6.00
2023-05-09T13:06:21.063Z,4.93
2023-05-09T13:09:01.429Z,5.27
2023-05-09T13:11:30.204Z,5.60
2023-05-09T13:13:58.515Z,5.40
2023-05-09T13:16:26.226Z,5.43
2023-05-09T13:18:53.806Z,5.80
2023-05-09T13:21:21.795Z,5.77
2023-05-09T13:23:50.053Z,5.20
2023-05-09T13:26:19.190Z,4.80
2023-05-09T13:28:46.820Z,5.03
2023-05-09T13:31:14.588Z,4.77
2023-05-09T13:33:42.265Z,4.50
2023-05-09T13:36:10.300Z,4.80
2023-05-09T13:38:40.617Z,4.10
2023-05-09T13:41:08.481Z,4.50
2023-05-09T13:43:38.302Z,4.73
2023-05-09T13:46:06.025Z,5.23
2023-05-09T13:48:33.958Z,4.07
2023-05-09T13:51:01.616Z,4.23
2023-05-09T13:53:29.261Z,4.63
2023-05-09T13:55:56.990Z,3.73
2023-05-09T13:58:24.747Z,3.77
2023-05-09T14:00:53.691Z,4.40
2023-05-09T14:03:21.352Z,4.40
2023-05-09T14:05:49.516Z,4.50
2023-05-09T14:08:17.615Z,4.00
2023-05-09T14:10:45.568Z,4.03
2023-05-09T14:13:15.513Z,4.10
2023-05-09T14:15:43.670Z,4.23
2023-05-09T14:18:17.042Z,4.23
2023-05-09T14:20:46.089Z,3.73
2023-05-09T14:23:13.687Z,4.13
2023-05-09T14:25:41.271Z,4.50
2023-05-09T14:28:09.550Z,3.93
2023-05-09T14:30:37.488Z,4.20
2023-05-09T14:33:05.646Z,4.10
2023-05-09T14:35:34.802Z,4.30
2023-05-09T14:38:02.935Z,4.00
2023-05-09T14:40:32.070Z,3.97
2023-05-09T14:43:02.263Z,3.90
2023-05-09T14:45:30.372Z,4.57
2023-05-09T14:47:58.288Z,4.00
2023-05-09T14:50:26.159Z,4.27
2023-05-09T14:52:55.213Z,4.90
2023-05-09T14:55:23.525Z,4.60
2023-05-09T14:57:51.187Z,3.80
2023-05-09T15:00:21.821Z,4.67
2023-05-09T15:02:50.277Z,3.80
2023-05-09T15:05:18.471Z,4.67
2023-05-09T15:07:46.342Z,4.00
2023-05-09T15:10:16.057Z,4.03
2023-05-09T15:12:44.773Z,4.80
2023-05-09T15:15:17.175Z,4.60
2023-05-09T15:17:45.446Z,4.33
2023-05-09T15:20:15.649Z,4.10
2023-05-09T15:22:43.977Z,4.87
2023-05-09T15:25:12.251Z,4.07
2023-05-09T15:27:41.309Z,4.20
2023-05-09T15:30:10.256Z,3.83
2023-05-09T15:32:39.808Z,3.87
2023-05-09T15:35:08.651Z,4.60
2023-05-09T15:37:36.427Z,4.20
2023-05-09T15:40:04.329Z,4.27
2023-05-09T15:42:31.992Z,4.50
2023-05-09T15:45:01.170Z,4.13
2023-05-09T15:47:28.887Z,4.47
2023-05-09T15:49:56.611Z,4.23
2023-05-09T15:52:24.242Z,4.20
2023-05-09T15:54:52.521Z,4.07
2023-05-09T15:57:20.177Z,4.93
2023-05-09T15:59:47.724Z,3.83
2023-05-09T16:02:16.822Z,3.90
2023-05-09T16:04:44.552Z,4.40
2023-05-09T16:07:12.385Z,4.53
2023-05-09T16:09:40.105Z,4.13
2023-05-09T16:12:07.787Z,3.93
2023-05-09T16:14:35.887Z,4.47
2023-05-09T16:17:03.550Z,4.07
2023-05-09T16:19:35.634Z,4.70
2023-05-09T16:22:03.521Z,4.97
2023-05-09T16:24:31.812Z,4.90
2023-05-09T16:26:59.465Z,5.10
2023-05-09T16:29:28.452Z,4.63
2023-05-09T16:31:56.176Z,4.33
2023-05-09T16:34:24.072Z,4.80
2023-05-09T16:36:53.218Z,4.60
2023-05-09T16:39:20.851Z,4.73
2023-05-09T16:41:48.476Z,5.70
2023-05-09T16:44:17.207Z,4.93
2023-05-09T16:46:44.833Z,6.00
2023-05-09T16:49:14.937Z,6.20
2023-05-09T16:51:42.896Z,6.30
2023-05-09T16:54:11.938Z,5.43
2023-05-09T16:56:39.609Z,4.83
2023-05-09T16:59:07.577Z,4.20
2023-05-09T17:01:35.674Z,4.73
2023-05-09T17:04:06.563Z,4.20
2023-05-09T17:06:34.301Z,4.30
2023-05-09T17:09:02.190Z,4.50
2023-05-09T17:11:31.327Z,4.60
2023-05-09T17:13:58.952Z,4.43
2023-05-09T17:16:26.632Z,4.23
2023-05-09T17:18:54.217Z,4.00
2023-05-09T17:21:22.953Z,3.90
2023-05-09T17:23:53.758Z,4.60
2023-05-09T17:26:21.553Z,4.40
2023-05-09T17:28:50.606Z,4.70
2023-05-09T17:31:18.282Z,4.37
2023-05-09T17:33:45.955Z,4.00
2023-05-09T17:36:13.579Z,4.70
2023-05-09T17:38:41.190Z,4.70
2023-05-09T17:41:08.838Z,4.17
2023-05-09T17:43:36.465Z,4.07
2023-05-09T17:46:05.617Z,4.47
2023-05-09T17:48:33.310Z,4.40
2023-05-09T17:51:01.130Z,4.30
2023-05-09T17:53:28.712Z,4.23
2023-05-09T17:55:56.313Z,4.33
2023-05-09T17:58:24.189Z,4.40
2023-05-09T18:00:53.699Z,4.17
2023-05-09T18:03:22.719Z,4.97
2023-05-09T18:05:50.439Z,4.30
2023-05-09T18:08:18.264Z,4.37
2023-05-09T18:10:46.722Z,4.67
2023-05-09T18:13:14.862Z,4.30
2023-05-09T18:15:42.916Z,4.13
2023-05-09T18:18:14.374Z,4.30
2023-05-09T18:20:46.242Z,3.43
2023-05-09T18:23:14.734Z,3.47
2023-05-09T18:25:42.822Z,4.73
2023-05-09T18:28:10.884Z,4.40
2023-05-09T18:30:38.892Z,4.33
2023-05-09T18:33:07.150Z,5.10
2023-05-09T18:35:34.976Z,4.20
2023-05-09T18:38:04.112Z,4.10
2023-05-09T18:40:32.550Z,4.20
2023-05-09T18:43:00.139Z,4.53
2023-05-09T18:45:27.983Z,4.53
2023-05-09T18:47:55.866Z,4.47
2023-05-09T18:50:24.157Z,4.20
2023-05-09T18:52:51.733Z,4.30
2023-05-09T18:55:21.951Z,4.30
2023-05-09T18:57:50.101Z,4.27
2023-05-09T19:00:18.052Z,4.60
2023-05-09T19:02:45.855Z,4.57
2023-05-09T19:05:13.577Z,4.30
2023-05-09T19:07:42.417Z,4.73
2023-05-09T19:10:10.869Z,4.13
2023-05-09T19:12:39.862Z,4.20
2023-05-09T19:15:08.654Z,4.70
2023-05-09T19:17:36.567Z,4.90
2023-05-09T19:20:06.004Z,4.47
2023-05-09T19:22:33.652Z,4.90
2023-05-09T19:25:01.469Z,4.93
2023-05-09T19:27:29.265Z,4.27
2023-05-09T19:29:59.389Z,4.63
2023-05-09T19:32:27.127Z,5.90
2023-05-09T19:34:54.762Z,4.47
2023-05-09T19:37:22.393Z,5.07
2023-05-09T19:39:50.076Z,4.17
2023-05-09T19:42:17.686Z,4.60
2023-05-09T19:44:46.432Z,4.27
2023-05-09T19:47:15.406Z,5.60
2023-05-09T19:49:43.012Z,4.40
2023-05-09T19:52:10.700Z,4.90
2023-05-09T19:54:38.283Z,4.77
2023-05-09T19:57:06.813Z,4.90
2023-05-09T19:59:34.652Z,4.63
2023-05-09T20:02:02.366Z,4.50
2023-05-09T20:04:37.361Z,4.57
2023-05-09T20:07:05.858Z,4.80
2023-05-09T20:09:33.520Z,5.37
2023-05-09T20:12:03.421Z,4.77
2023-05-09T20:14:31.726Z,4.73
2023-05-09T20:16:59.623Z,4.60
2023-05-09T20:19:27.743Z,4.73
2023-05-09T20:21:56.827Z,5.03
2023-05-09T20:24:24.490Z,5.20
2023-05-09T20:26:52.194Z,5.37
2023-05-09T20:29:20.113Z,4.93
2023-05-09T20:31:48.010Z,5.00
2023-05-09T20:34:17.768Z,5.43
2023-05-09T20:36:48.327Z,5.10
2023-05-09T20:39:17.706Z,5.30
2023-05-09T20:41:45.474Z,5.43
2023-05-09T20:44:14.326Z,5.37
2023-05-09T20:46:42.213Z,4.53
2023-05-09T20:49:10.511Z,5.57
2023-05-09T20:51:38.561Z,4.00
2023-05-09T20:54:06.754Z,4.97
2023-05-09T20:56:35.778Z,5.43
2023-05-09T20:59:04.289Z,4.70
2023-05-09T21:01:35.376Z,5.13
2023-05-09T21:04:03.972Z,5.63
2023-05-09T21:06:31.747Z,5.60
2023-05-09T21:08:59.324Z,4.80
2023-05-09T21:11:27.021Z,4.60
2023-05-09T21:13:56.025Z,5.00
2023-05-09T21:16:23.889Z,5.00
2023-05-09T21:18:51.448Z,5.23
2023-05-09T21:21:19.155Z,5.30
2023-05-09T21:23:46.937Z,5.37
2023-05-09T21:26:14.529Z,5.00
2023-05-09T21:28:42.138Z,5.10
2023-05-09T21:31:11.499Z,5.73
2023-05-09T21:33:39.324Z,6.10
2023-05-09T21:36:07.654Z,5.50
2023-05-09T21:38:35.395Z,5.10
2023-05-09T21:41:03.078Z,5.40
2023-05-09T21:43:30.818Z,5.17
2023-05-09T21:45:58.451Z,4.90
2023-05-09T21:48:27.436Z,4.90
2023-05-09T21:50:55.086Z,4.87
2023-05-09T21:53:23.337Z,5.37
2023-05-09T21:55:51.055Z,5.20
2023-05-09T21:58:18.660Z,5.70
2023-05-09T22:00:46.369Z,5.00
2023-05-09T22:03:14.151Z,5.00
2023-05-09T22:05:43.208Z,5.00
2023-05-09T22:08:10.866Z,4.73
2023-05-09T22:10:38.645Z,5.20
2023-05-09T22:13:06.461Z,5.67
2023-05-09T22:15:34.165Z,5.27
2023-05-09T22:18:01.865Z,6.10
2023-05-09T22:20:29.631Z,5.50
2023-05-09T22:22:58.666Z,5.53
2023-05-09T22:25:26.295Z,5.20
2023-05-09T22:27:54.773Z,5.17
2023-05-09T22:30:22.628Z,4.90
2023-05-09T22:32:50.247Z,5.13
2023-05-09T22:35:17.928Z,5.37
2023-05-09T22:37:45.538Z,4.67
2023-05-09T22:40:14.951Z,5.47
2023-05-09T22:42:42.867Z,5.40
2023-05-09T22:45:11.390Z,5.00
2023-05-09T22:47:39.052Z,5.53
2023-05-09T22:50:08.231Z,5.00
2023-05-09T22:52:35.889Z,4.70
2023-05-09T22:55:03.593Z,5.00
2023-05-09T22:57:32.655Z,5.37
2023-05-09T23:00:00.306Z,5.53
2023-05-09T23:02:28.003Z,4.83
2023-05-09T23:04:55.647Z,5.10
2023-05-09T23:07:23.589Z,4.43
2023-05-09T23:09:51.248Z,5.20
2023-05-09T23:12:18.896Z,5.40
2023-05-09T23:14:48.001Z,4.40
2023-05-09T23:17:16.096Z,4.90
2023-05-09T23:19:43.794Z,5.40
2023-05-09T23:22:11.402Z,5.70
2023-05-09T23:24:38.980Z,5.27
2023-05-09T23:27:06.956Z,5.50
2023-05-09T23:29:34.549Z,5.00
2023-05-09T23:32:03.524Z,5.40
2023-05-09T23:34:31.740Z,6.20
2023-05-09T23:36:59.368Z,5.10
2023-05-09T23:39:26.970Z,5.50
2023-05-09T23:41:54.571Z,5.50
2023-05-09T23:44:22.173Z,5.90
2023-05-09T23:46:49.868Z,5.20
2023-05-09T23:49:19.218Z,5.70
2023-05-09T23:51:46.949Z,5.30
2023-05-09T23:54:16.410Z,5.33
2023-05-09T23:56:43.999Z,6.90
2023-05-09T23:59:11.564Z,5.60
